Historique des mesures à Cassis (13260), France
Quotidien Résumé Fevrier 7, 2018 Unités:  US    Métrique   Métrique/US
« Précédent (Jour)
Suivant (Jour) »
Quotidien Hebdomadaire Mensuel Annuel Période au choix
  Maximum: Minimum: Moyenne:
Température: 32 °F 37.6 °F 40.5 °F
Point de rosée: 32 °F 25.3 °F 30.7 °F
Humidité: Humidity % 58 % 65 %
Vitesse du vent: WindSpeedKMH mph 0.0 mph 14.4 mph
Rafales: WindSpeedGustKMH mph - -
Vent:- - West
Pression: 0 in 29.6 in -
Précipitations: 0 in    
Historical Graphs
 
 
Mesures pour : Fevrier 7, 2018
Heure Temperature Point de rosée Pression Vent Vitesse du vent Rafales Humidité Pluie (par heure) Conditions
32 °F 32 °F 0 in Calm     Humidity % 0 in SoftwareType W/m2
00:12 44.8 °F 38.7 °F 29.6 in NW 16.6 mph 16.6 mph 79 % 0 in open2300-1.11 W/m2
01:12 45 °F 38.8 °F 29.6 in Calm   2.9 mph 79 % 0 in open2300-1.11 W/m2
02:12 42.6 °F 36.5 °F 29.6 in NNW 7.6 mph 7.6 mph 79 % 0 in open2300-1.11 W/m2
03:12 41.7 °F 35.6 °F 29.6 in WNW 11.6 mph 11.6 mph 79 % 0 in open2300-1.11 W/m2
04:12 40.5 °F 34.9 °F 29.6 in NNW 14.8 mph 15.4 mph 80 % 0 in open2300-1.11 W/m2
05:12 39.9 °F 34 °F 29.6 in WNW 2.9 mph 19.5 mph 79 % 0 in open2300-1.11 W/m2
06:12 38.8 °F 32.5 °F 29.6 in WNW 15.4 mph 23.0 mph 78 % 0 in open2300-1.11 W/m2
07:12 38.1 °F 31.3 °F 29.6 in NNW 9.0 mph 23.0 mph 76 % 0 in open2300-1.11 W/m2
08:12 37.9 °F 29.7 °F 29.6 in WNW 8.7 mph 14.0 mph 72 % 0 in open2300-1.11 W/m2
09:12 38.3 °F 28.9 °F 29.6 in NNW 11.9 mph 17.2 mph 69 % 0 in open2300-1.11 W/m2
10:12 39.4 °F 28.9 °F 29.6 in NW 14.3 mph 33.8 mph 66 % 0 in open2300-1.11 W/m2
11:12 41.2 °F 29.8 °F 29.6 in NNW 14.3 mph 22.4 mph 64 % 0 in open2300-1.11 W/m2
12:12 43 °F 30.4 °F 29.7 in North 14.3 mph 23.3 mph 61 % 0 in open2300-1.11 W/m2
13:12 43.9 °F 30.6 °F 29.7 in NNW 18.3 mph 18.3 mph 59 % 0 in open2300-1.11 W/m2
14:12 44.4 °F 30.6 °F 29.7 in NW 30.6 mph 30.6 mph 58 % 0 in open2300-1.11 W/m2
15:12 44.1 °F 30.2 °F 29.7 in NNW 13.0 mph 19.1 mph 58 % 0 in open2300-1.11 W/m2
16:12 43 °F 29.7 °F 29.7 in North 25.6 mph 50.0 mph 59 % 0 in open2300-1.11 W/m2
17:12 41.9 °F 28.9 °F 29.7 in NNW 7.2 mph 21.9 mph 60 % 0 in open2300-1.11 W/m2
18:12 40.5 °F 28 °F 29.7 in NW 13.7 mph 18.0 mph 61 % 0 in open2300-1.11 W/m2
19:12 39.6 °F 26.8 °F 29.7 in WNW 28.8 mph 28.8 mph 60 % 0 in open2300-1.11 W/m2
20:12 39 °F 26.2 °F 29.7 in North 16.9 mph 50.4 mph 60 % 0 in open2300-1.11 W/m2
21:12 38.1 °F 25.5 °F 29.8 in North 16.6 mph 27.4 mph 60 % 0 in open2300-1.11 W/m2
22:12 37.8 °F 25.9 °F 29.8 in WNW 29.4 mph 29.4 mph 62 % 0 in open2300-1.11 W/m2
23:12 37.6 °F 25.3 °F 29.8 in WNW 17.7 mph 22.7 mph 61 % 0 in open2300-1.11 W/m2
Observations météo à CASSIS
WU-History script by Weather Underground - 1 mb